Time;durP1;ratioP1;P1;durP2;ratioP2;P2;SDS_P1;SDS_P2;PMS_P1;PMS_P2;Temp;Humidity;BMP_temperature;BMP_pressure;BME280_temperature;BME280_humidity;BME280_pressure;Samples;Min_cycle;Max_cycle;Signal;HPM_P1;HPM_P2
2021/11/25 00:02:21;;;;;;;16.75;8.65;;;;;;;;;;4983545;28;20056;-66
2021/11/25 00:04:46;;;;;;;16.75;8.07;;;;;;;;;;4981209;28;20605;-66
2021/11/25 00:07:12;;;;;;;15.73;7.60;;;;;;;;;;4987017;28;20018;-66
2021/11/25 00:09:37;;;;;;;27.17;8.57;;;;;;;;;;4980902;28;20117;-66
2021/11/25 00:12:02;;;;;;;18.38;8.50;;;;;;;;;;5010798;28;20041;-66
2021/11/25 00:14:27;;;;;;;17.35;8.02;;;;;;;;;;5004892;28;20462;-66
2021/11/25 00:16:53;;;;;;;16.45;8.23;;;;;;;;;;4981880;28;20027;-66
2021/11/25 00:19:18;;;;;;;14.82;7.63;;;;;;;;;;4984721;28;20030;-66
2021/11/25 00:21:43;;;;;;;14.23;7.35;;;;;;;;;;4990130;28;20081;-66
2021/11/25 00:24:08;;;;;;;14.63;7.30;;;;;;;;;;4982830;28;20489;-66
2021/11/25 00:26:34;;;;;;;17.42;8.18;;;;;;;;;;4980473;28;20030;-66
2021/11/25 00:28:59;;;;;;;17.33;7.85;;;;;;;;;;4983582;28;20378;-66
2021/11/25 00:31:24;;;;;;;15.88;7.63;;;;;;;;;;4979507;28;20467;-66
2021/11/25 00:33:50;;;;;;;18.75;7.65;;;;;;;;;;4981707;28;20030;-66
2021/11/25 00:36:15;;;;;;;12.52;7.45;;;;;;;;;;4984439;28;20031;-66
2021/11/25 00:38:40;;;;;;;15.57;8.05;;;;;;;;;;4980763;28;20030;-66
2021/11/25 00:41:05;;;;;;;15.60;7.45;;;;;;;;;;4985890;28;20018;-66
2021/11/25 00:43:31;;;;;;;18.08;7.85;;;;;;;;;;4981503;28;20026;-66
2021/11/25 00:45:56;;;;;;;14.80;7.88;;;;;;;;;;4971993;28;20106;-66
2021/11/25 00:48:21;;;;;;;15.32;7.45;;;;;;;;;;4978497;28;20182;-66
2021/11/25 00:50:47;;;;;;;15.80;8.10;;;;;;;;;;4990477;28;20088;-66
2021/11/25 00:53:14;;;;;;;14.27;7.55;;;;;;;;;;4986822;28;20035;-66
2021/11/25 00:55:39;;;;;;;16.10;7.45;;;;;;;;;;4974483;28;20203;-66
2021/11/25 00:58:05;;;;;;;17.00;7.55;;;;;;;;;;4980327;28;20030;-66
2021/11/25 01:00:30;;;;;;;14.73;7.72;;;;;;;;;;4975888;28;20101;-66
2021/11/25 01:02:56;;;;;;;14.55;7.30;;;;;;;;;;4978953;28;20025;-66
2021/11/25 01:05:21;;;;;;;13.30;6.82;;;;;;;;;;4980000;28;20097;-66
2021/11/25 01:07:47;;;;;;;15.98;7.13;;;;;;;;;;4975303;28;20432;-66
2021/11/25 01:10:13;;;;;;;16.08;8.65;;;;;;;;;;4975376;28;20014;-66
2021/11/25 01:12:39;;;;;;;20.60;8.25;;;;;;;;;;4973813;28;20031;-66
2021/11/25 01:15:05;;;;;;;17.75;8.05;;;;;;;;;;4980499;28;20372;-66
2021/11/25 01:17:30;;;;;;;18.42;7.72;;;;;;;;;;4971711;28;20446;-66
2021/11/25 01:19:56;;;;;;;15.63;7.32;;;;;;;;;;4984402;28;20014;-66
2021/11/25 01:22:21;;;;;;;17.83;7.63;;;;;;;;;;4987702;28;20018;-65
2021/11/25 01:24:46;;;;;;;18.20;7.88;;;;;;;;;;4971950;28;20297;-66
2021/11/25 01:27:11;;;;;;;14.02;7.85;;;;;;;;;;4983131;28;20490;-66
2021/11/25 01:29:37;;;;;;;14.10;7.32;;;;;;;;;;4978333;28;20054;-66
2021/11/25 01:32:03;;;;;;;11.63;6.85;;;;;;;;;;4977339;28;20093;-66
2021/11/25 01:34:28;;;;;;;15.45;7.72;;;;;;;;;;4987812;28;20030;-65
2021/11/25 01:36:53;;;;;;;18.40;7.70;;;;;;;;;;4980301;28;20862;-66
2021/11/25 01:39:18;;;;;;;13.25;7.90;;;;;;;;;;4995963;28;20014;-66
2021/11/25 01:41:44;;;;;;;13.43;7.28;;;;;;;;;;5002055;28;20068;-66
2021/11/25 01:44:09;;;;;;;13.32;7.47;;;;;;;;;;4977750;28;20448;-66
2021/11/25 01:46:35;;;;;;;15.38;8.18;;;;;;;;;;4980043;28;20105;-66
2021/11/25 01:49:00;;;;;;;12.85;7.10;;;;;;;;;;4980612;28;20472;-66
2021/11/25 01:51:25;;;;;;;19.88;8.32;;;;;;;;;;4974971;28;20443;-66
2021/11/25 01:53:51;;;;;;;22.33;8.48;;;;;;;;;;4975684;28;20058;-66
2021/11/25 01:56:17;;;;;;;14.07;8.05;;;;;;;;;;4979073;28;20015;-66
2021/11/25 01:58:43;;;;;;;16.92;8.52;;;;;;;;;;4983745;28;20057;-66
2021/11/25 02:01:09;;;;;;;16.00;8.40;;;;;;;;;;4980801;28;20435;-66
2021/11/25 02:03:35;;;;;;;19.23;8.05;;;;;;;;;;4977192;28;20029;-66
2021/11/25 02:06:00;;;;;;;19.73;8.30;;;;;;;;;;4987242;28;20101;-66
2021/11/25 02:08:25;;;;;;;17.88;8.75;;;;;;;;;;4990383;28;20088;-66
2021/11/25 02:10:52;;;;;;;16.60;7.95;;;;;;;;;;4976351;28;20027;-66
2021/11/25 02:13:17;;;;;;;17.48;9.05;;;;;;;;;;4985313;28;20081;-66
2021/11/25 02:15:42;;;;;;;18.80;9.38;;;;;;;;;;4976602;28;20030;-66
2021/11/25 02:18:09;;;;;;;16.77;9.00;;;;;;;;;;4975268;28;20106;-66
2021/11/25 02:20:38;;;;;;;15.60;8.52;;;;;;;;;;4973985;28;20066;-66
2021/11/25 02:23:04;;;;;;;18.15;8.60;;;;;;;;;;4984492;28;20029;-66
2021/11/25 02:25:30;;;;;;;17.52;8.68;;;;;;;;;;4991568;28;20513;-66
2021/11/25 02:27:55;;;;;;;20.95;8.70;;;;;;;;;;4992129;28;20105;-66
2021/11/25 02:30:21;;;;;;;13.32;7.43;;;;;;;;;;4977566;28;20026;-66
2021/11/25 02:32:46;;;;;;;16.63;8.30;;;;;;;;;;4977863;28;20030;-66
2021/11/25 02:35:14;;;;;;;14.13;7.40;;;;;;;;;;4993086;28;20034;-66
2021/11/25 02:37:39;;;;;;;13.27;7.50;;;;;;;;;;4985107;28;20022;-66
2021/11/25 02:40:27;;;;;;;14.40;7.53;;;;;;;;;;4976665;28;20026;-66
2021/11/25 02:42:54;;;;;;;18.95;9.55;;;;;;;;;;4975812;28;20387;-66
2021/11/25 02:45:21;;;;;;;18.52;8.57;;;;;;;;;;4986456;28;20026;-66
2021/11/25 02:47:46;;;;;;;16.90;8.55;;;;;;;;;;4980462;28;20383;-66
2021/11/25 02:50:13;;;;;;;15.63;9.15;;;;;;;;;;4975865;28;20030;-66
2021/11/25 02:52:40;;;;;;;16.63;8.65;;;;;;;;;;4979499;28;20505;-66
2021/11/25 02:55:05;;;;;;;15.23;8.45;;;;;;;;;;4989078;28;20590;-66
2021/11/25 02:57:33;;;;;;;18.58;8.55;;;;;;;;;;4985998;28;20022;-66
2021/11/25 02:59:58;;;;;;;18.73;10.00;;;;;;;;;;4982819;28;20527;-66
2021/11/25 03:02:23;;;;;;;18.63;9.13;;;;;;;;;;4974444;28;20117;-66
2021/11/25 03:04:48;;;;;;;18.83;9.82;;;;;;;;;;4990994;28;20022;-66
2021/11/25 03:07:13;;;;;;;19.85;9.35;;;;;;;;;;4977006;28;20081;-66
2021/11/25 03:09:39;;;;;;;19.17;9.98;;;;;;;;;;4973172;28;20383;-66
2021/11/25 03:12:04;;;;;;;22.13;10.93;;;;;;;;;;4988652;28;20364;-66
2021/11/25 03:14:29;;;;;;;21.45;10.00;;;;;;;;;;4989441;28;20034;-66
2021/11/25 03:16:54;;;;;;;20.00;10.05;;;;;;;;;;4990711;28;20061;-66
2021/11/25 03:19:19;;;;;;;23.08;10.10;;;;;;;;;;4986572;28;20402;-66
2021/11/25 03:21:45;;;;;;;20.33;11.00;;;;;;;;;;4982515;28;20077;-66
2021/11/25 03:24:10;;;;;;;23.55;10.63;;;;;;;;;;4973209;28;20711;-66
2021/11/25 03:26:35;;;;;;;20.58;10.55;;;;;;;;;;4987632;28;20022;-66
2021/11/25 03:29:02;;;;;;;20.02;9.90;;;;;;;;;;4990261;28;20030;-66
2021/11/25 03:31:29;;;;;;;20.52;10.88;;;;;;;;;;4974324;28;20031;-66
2021/11/25 03:33:56;;;;;;;21.52;9.60;;;;;;;;;;4972869;28;20406;-66
2021/11/25 03:36:21;;;;;;;22.58;10.68;;;;;;;;;;4984136;28;20430;-66
2021/11/25 03:38:47;;;;;;;21.67;9.95;;;;;;;;;;4973678;28;20011;-66
2021/11/25 03:41:13;;;;;;;21.65;9.95;;;;;;;;;;4979611;28;20022;-66
2021/11/25 03:43:38;;;;;;;20.23;9.90;;;;;;;;;;4974286;28;20018;-66
2021/11/25 03:46:04;;;;;;;20.77;9.35;;;;;;;;;;5013929;23;20042;-65
2021/11/25 03:48:29;;;;;;;23.95;11.43;;;;;;;;;;5011524;28;20041;-65
2021/11/25 03:51:06;;;;;;;22.40;9.80;;;;;;;;;;5009578;28;20029;-65
2021/11/25 03:53:32;;;;;;;21.48;10.35;;;;;;;;;;5011468;28;20033;-64
2021/11/25 03:55:57;;;;;;;16.25;9.00;;;;;;;;;;5005161;28;20031;-64
2021/11/25 03:58:22;;;;;;;23.52;10.50;;;;;;;;;;4990525;28;20025;-65
2021/11/25 04:00:48;;;;;;;18.35;9.70;;;;;;;;;;4991228;28;20014;-65
2021/11/25 04:03:14;;;;;;;22.33;10.20;;;;;;;;;;5003968;28;20030;-64
2021/11/25 04:05:39;;;;;;;20.90;10.18;;;;;;;;;;5001300;28;20053;-64
2021/11/25 04:08:04;;;;;;;35.65;13.75;;;;;;;;;;5000097;28;20029;-64
2021/11/25 04:10:30;;;;;;;21.35;11.20;;;;;;;;;;4995918;28;20034;-64
2021/11/25 04:12:55;;;;;;;22.65;10.77;;;;;;;;;;5005318;28;20033;-64
2021/11/25 04:15:20;;;;;;;21.30;10.57;;;;;;;;;;5008093;28;20102;-64
2021/11/25 04:17:46;;;;;;;24.48;10.65;;;;;;;;;;4996419;28;20117;-65
2021/11/25 04:20:11;;;;;;;21.38;11.27;;;;;;;;;;4996969;28;20022;-64
2021/11/25 04:22:37;;;;;;;19.60;10.38;;;;;;;;;;4997513;28;20045;-65
2021/11/25 04:25:03;;;;;;;20.13;10.88;;;;;;;;;;4991315;28;20383;-64
2021/11/25 04:27:28;;;;;;;20.95;11.23;;;;;;;;;;5009411;28;20449;-64
2021/11/25 04:35:35;;;;;;;23.77;11.52;;;;;;;;;;4994738;28;20096;-65
2021/11/25 04:38:05;;;;;;;24.65;11.55;;;;;;;;;;5006116;28;20025;-65
2021/11/25 04:40:34;;;;;;;20.92;11.40;;;;;;;;;;4996060;28;20422;-65
2021/11/25 04:42:59;;;;;;;25.85;12.73;;;;;;;;;;4990775;28;20024;-65
2021/11/25 04:45:24;;;;;;;20.10;11.32;;;;;;;;;;4990388;28;20034;-65
2021/11/25 04:47:49;;;;;;;23.42;11.57;;;;;;;;;;4990348;28;20023;-65
2021/11/25 04:50:15;;;;;;;21.17;11.93;;;;;;;;;;4990206;28;20108;-65
2021/11/25 04:52:40;;;;;;;20.88;11.63;;;;;;;;;;4990490;28;20065;-65
2021/11/25 04:55:05;;;;;;;26.38;13.18;;;;;;;;;;4990721;28;20084;-65
2021/11/25 04:57:31;;;;;;;24.50;11.55;;;;;;;;;;4990659;28;20538;-65
2021/11/25 04:59:56;;;;;;;26.98;12.30;;;;;;;;;;4990603;28;20025;-65
2021/11/25 05:02:21;;;;;;;22.73;12.13;;;;;;;;;;4990514;28;20023;-65
2021/11/25 05:04:46;;;;;;;22.80;11.90;;;;;;;;;;4989065;28;20022;-65
2021/11/25 05:07:11;;;;;;;22.25;10.85;;;;;;;;;;4991174;28;20018;-65
2021/11/25 05:09:37;;;;;;;27.40;10.93;;;;;;;;;;4994303;28;20014;-65
2021/11/25 05:12:02;;;;;;;19.45;10.75;;;;;;;;;;4993842;28;20048;-65
2021/11/25 05:14:27;;;;;;;23.88;10.98;;;;;;;;;;4994161;28;20033;-65
2021/11/25 05:16:52;;;;;;;22.97;12.40;;;;;;;;;;4994696;28;20490;-65
2021/11/25 05:19:18;;;;;;;19.37;11.40;;;;;;;;;;4992828;28;20253;-65
2021/11/25 05:21:43;;;;;;;20.38;10.85;;;;;;;;;;4993945;28;20748;-65
2021/11/25 05:24:09;;;;;;;21.35;10.48;;;;;;;;;;4994087;28;20018;-65
2021/11/25 05:26:34;;;;;;;19.45;10.27;;;;;;;;;;4993912;28;20074;-65
2021/11/25 05:28:59;;;;;;;21.77;12.32;;;;;;;;;;4993686;28;20447;-65
2021/11/25 05:31:25;;;;;;;23.45;11.95;;;;;;;;;;4994252;28;20049;-65
2021/11/25 05:33:50;;;;;;;26.25;12.00;;;;;;;;;;4993715;28;20058;-65
2021/11/25 05:36:15;;;;;;;25.95;11.25;;;;;;;;;;4994205;28;20053;-65
2021/11/25 05:38:40;;;;;;;18.20;10.40;;;;;;;;;;4993732;28;20097;-65
2021/11/25 05:41:06;;;;;;;23.08;11.98;;;;;;;;;;4993397;28;20084;-65
2021/11/25 05:43:31;;;;;;;29.40;13.40;;;;;;;;;;4993617;28;20030;-65
2021/11/25 05:45:56;;;;;;;25.73;13.05;;;;;;;;;;4992224;28;20127;-65
2021/11/25 05:48:23;;;;;;;24.25;14.18;;;;;;;;;;4991190;28;20522;-65
2021/11/25 05:50:50;;;;;;;24.42;11.57;;;;;;;;;;4996234;28;20030;-65
2021/11/25 05:53:18;;;;;;;22.00;11.95;;;;;;;;;;4991877;28;20545;-65
2021/11/25 05:55:43;;;;;;;24.05;11.38;;;;;;;;;;4991096;28;20031;-65
2021/11/25 05:58:08;;;;;;;25.55;11.82;;;;;;;;;;4991421;28;20027;-65
2021/11/25 06:00:34;;;;;;;24.77;11.35;;;;;;;;;;4991130;28;20080;-65
2021/11/25 06:02:59;;;;;;;23.13;11.63;;;;;;;;;;4991327;28;20081;-65
2021/11/25 06:05:24;;;;;;;20.77;10.88;;;;;;;;;;4991086;28;20026;-66
2021/11/25 06:07:50;;;;;;;28.70;12.00;;;;;;;;;;4991366;28;20018;-65
2021/11/25 06:10:16;;;;;;;28.08;12.48;;;;;;;;;;4991401;28;20049;-65
2021/11/25 06:12:41;;;;;;;22.13;10.52;;;;;;;;;;4991815;28;20062;-65
2021/11/25 06:15:07;;;;;;;20.90;11.30;;;;;;;;;;4991621;28;20038;-65
2021/11/25 06:17:32;;;;;;;19.20;11.07;;;;;;;;;;4990665;28;20027;-65
2021/11/25 06:19:57;;;;;;;29.63;12.70;;;;;;;;;;4989808;28;20018;-65
2021/11/25 06:22:23;;;;;;;27.50;11.82;;;;;;;;;;4991172;28;20027;-65
2021/11/25 06:24:48;;;;;;;25.92;11.80;;;;;;;;;;4990548;28;20097;-65
2021/11/25 06:27:13;;;;;;;24.10;11.50;;;;;;;;;;4990997;28;20553;-65
2021/11/25 06:29:39;;;;;;;21.17;11.75;;;;;;;;;;4989611;28;20097;-65
2021/11/25 06:32:04;;;;;;;24.63;12.23;;;;;;;;;;4989924;28;20484;-65
2021/11/25 06:34:29;;;;;;;24.02;11.60;;;;;;;;;;4984533;28;20030;-65
2021/11/25 06:36:54;;;;;;;18.60;10.00;;;;;;;;;;4986920;28;20076;-65
2021/11/25 06:39:20;;;;;;;26.27;12.13;;;;;;;;;;4992897;28;20448;-65
2021/11/25 06:41:45;;;;;;;22.20;11.23;;;;;;;;;;4990716;28;20026;-65
2021/11/25 06:44:10;;;;;;;23.73;11.55;;;;;;;;;;4990453;28;20037;-65
2021/11/25 06:46:35;;;;;;;30.88;12.90;;;;;;;;;;4989310;28;20101;-65
2021/11/25 06:49:00;;;;;;;22.77;11.70;;;;;;;;;;4988762;28;20026;-65
2021/11/25 06:51:27;;;;;;;20.75;10.45;;;;;;;;;;4988027;28;20018;-65
2021/11/25 06:53:52;;;;;;;25.02;12.18;;;;;;;;;;4990511;28;20430;-65
2021/11/25 06:56:17;;;;;;;21.95;11.48;;;;;;;;;;4989362;28;20034;-65
2021/11/25 06:58:42;;;;;;;27.15;12.10;;;;;;;;;;4991094;28;20033;-65
2021/11/25 07:01:08;;;;;;;20.58;10.77;;;;;;;;;;4991497;28;20056;-65
2021/11/25 07:03:36;;;;;;;22.45;11.13;;;;;;;;;;4992549;28;20364;-65
2021/11/25 07:06:01;;;;;;;24.23;12.48;;;;;;;;;;4991281;28;20031;-65
2021/11/25 07:08:27;;;;;;;27.25;12.10;;;;;;;;;;4992476;28;20099;-65
2021/11/25 07:10:52;;;;;;;23.25;12.60;;;;;;;;;;4992153;28;20475;-65
2021/11/25 07:13:17;;;;;;;17.65;9.23;;;;;;;;;;4990813;28;20019;-65
2021/11/25 07:15:43;;;;;;;22.13;10.95;;;;;;;;;;4988345;28;20022;-65
2021/11/25 07:18:08;;;;;;;22.58;10.68;;;;;;;;;;4990558;28;20026;-65
2021/11/25 07:20:33;;;;;;;31.40;12.23;;;;;;;;;;4988149;28;20023;-65
2021/11/25 07:22:58;;;;;;;17.00;9.65;;;;;;;;;;4991739;28;20109;-65
2021/11/25 07:25:25;;;;;;;30.80;12.35;;;;;;;;;;5003023;28;20471;-65
2021/11/25 07:27:50;;;;;;;21.60;10.98;;;;;;;;;;4992426;28;20018;-65
2021/11/25 07:30:16;;;;;;;17.40;8.73;;;;;;;;;;4991553;28;20490;-65
2021/11/25 07:32:41;;;;;;;18.30;8.95;;;;;;;;;;4992482;28;20053;-65
2021/11/25 07:35:08;;;;;;;25.95;11.18;;;;;;;;;;4991500;28;20493;-65
2021/11/25 07:37:33;;;;;;;26.95;10.57;;;;;;;;;;4989970;28;20722;-65
2021/11/25 07:39:58;;;;;;;19.10;9.05;;;;;;;;;;4990835;28;20018;-65
2021/11/25 07:42:23;;;;;;;22.35;11.15;;;;;;;;;;4990761;28;20332;-65
2021/11/25 07:44:49;;;;;;;20.75;10.90;;;;;;;;;;4990065;28;20030;-65
2021/11/25 07:47:16;;;;;;;23.33;11.18;;;;;;;;;;4990978;28;20101;-65
2021/11/25 07:49:41;;;;;;;23.50;11.10;;;;;;;;;;4994703;28;20018;-65
2021/11/25 07:52:07;;;;;;;24.30;12.30;;;;;;;;;;4995767;28;20438;-65
2021/11/25 07:54:32;;;;;;;22.52;11.88;;;;;;;;;;4991207;28;20069;-65
2021/11/25 07:56:59;;;;;;;25.88;11.52;;;;;;;;;;4986724;28;20556;-65
2021/11/25 07:59:26;;;;;;;27.15;11.27;;;;;;;;;;4991298;28;20053;-65
2021/11/25 08:01:51;;;;;;;22.15;10.98;;;;;;;;;;4990903;28;20034;-65
2021/11/25 08:04:16;;;;;;;25.38;10.75;;;;;;;;;;4991661;28;20054;-66
2021/11/25 08:06:42;;;;;;;18.65;10.60;;;;;;;;;;4991514;28;20681;-65
2021/11/25 08:09:07;;;;;;;25.10;10.75;;;;;;;;;;4991184;28;20110;-65
2021/11/25 08:11:32;;;;;;;24.23;12.15;;;;;;;;;;4991539;28;20426;-65
2021/11/25 08:13:57;;;;;;;28.70;12.50;;;;;;;;;;4990015;28;20053;-65
2021/11/25 08:16:22;;;;;;;42.45;15.00;;;;;;;;;;4989994;28;20110;-65
2021/11/25 08:18:48;;;;;;;40.13;12.20;;;;;;;;;;4990249;28;20376;-65
2021/11/25 08:21:13;;;;;;;29.13;11.30;;;;;;;;;;4992809;28;20022;-65
2021/11/25 08:23:38;;;;;;;23.25;10.88;;;;;;;;;;4990944;28;20390;-65
2021/11/25 08:26:04;;;;;;;24.40;11.73;;;;;;;;;;4990724;28;20030;-65
2021/11/25 08:28:29;;;;;;;17.30;9.02;;;;;;;;;;4990835;28;20502;-65
2021/11/25 08:30:54;;;;;;;21.80;11.13;;;;;;;;;;4989961;28;20101;-65
2021/11/25 08:33:20;;;;;;;22.67;11.13;;;;;;;;;;4991132;28;20076;-65
2021/11/25 08:35:46;;;;;;;21.75;11.05;;;;;;;;;;4991150;28;20030;-65
2021/11/25 08:38:11;;;;;;;19.50;10.15;;;;;;;;;;4991124;28;20032;-66
2021/11/25 08:40:36;;;;;;;18.40;9.50;;;;;;;;;;4990373;28;20018;-66
2021/11/25 08:43:01;;;;;;;16.52;9.50;;;;;;;;;;4990033;28;20022;-66
2021/11/25 08:45:27;;;;;;;16.48;9.57;;;;;;;;;;4991495;28;20042;-66
2021/11/25 08:47:53;;;;;;;16.75;10.32;;;;;;;;;;4992584;28;20022;-66
2021/11/25 08:50:18;;;;;;;24.88;12.55;;;;;;;;;;4990463;28;20081;-65
2021/11/25 08:52:43;;;;;;;23.50;11.13;;;;;;;;;;4990160;28;20114;-65
2021/11/25 08:55:09;;;;;;;27.00;10.90;;;;;;;;;;4990141;28;20089;-65
2021/11/25 08:57:34;;;;;;;20.25;11.15;;;;;;;;;;4990686;28;20014;-66
2021/11/25 09:00:00;;;;;;;23.48;12.55;;;;;;;;;;4990335;28;20022;-66
2021/11/25 09:02:25;;;;;;;24.90;11.80;;;;;;;;;;4989948;28;20034;-66
2021/11/25 09:04:50;;;;;;;22.40;10.68;;;;;;;;;;4990128;28;20451;-66
2021/11/25 09:07:15;;;;;;;21.85;11.20;;;;;;;;;;4990517;28;20030;-66
2021/11/25 09:09:41;;;;;;;19.65;10.88;;;;;;;;;;4992199;28;20352;-66
2021/11/25 09:12:06;;;;;;;23.67;11.13;;;;;;;;;;4991157;28;20019;-66
2021/11/25 09:14:32;;;;;;;18.50;10.60;;;;;;;;;;4990089;28;20045;-66
2021/11/25 09:16:57;;;;;;;21.92;11.43;;;;;;;;;;4993029;28;20034;-66
2021/11/25 09:19:22;;;;;;;22.23;10.68;;;;;;;;;;4990839;28;20020;-66
2021/11/25 09:21:47;;;;;;;21.10;10.10;;;;;;;;;;4989888;28;20034;-66
2021/11/25 09:24:12;;;;;;;19.27;9.57;;;;;;;;;;4990107;28;20757;-66
2021/11/25 09:26:38;;;;;;;20.55;10.85;;;;;;;;;;4990357;28;20072;-66
2021/11/25 09:29:04;;;;;;;19.73;10.90;;;;;;;;;;5005513;28;20026;-66
2021/11/25 09:31:30;;;;;;;19.65;10.50;;;;;;;;;;4991805;28;20023;-66
2021/11/25 09:33:56;;;;;;;25.92;8.20;;;;;;;;;;4990393;28;20407;-66
2021/11/25 09:36:22;;;;;;;25.20;10.73;;;;;;;;;;4989878;28;20018;-66
2021/11/25 09:38:48;;;;;;;26.08;11.15;;;;;;;;;;4989464;28;20023;-66
2021/11/25 09:41:14;;;;;;;18.30;10.15;;;;;;;;;;4992039;28;20018;-66
2021/11/25 09:43:40;;;;;;;16.20;8.07;;;;;;;;;;4990205;28;20374;-66
2021/11/25 09:46:06;;;;;;;22.10;10.13;;;;;;;;;;4996526;28;20025;-66
2021/11/25 09:48:31;;;;;;;21.33;12.80;;;;;;;;;;5009779;28;20405;-66
2021/11/25 09:50:57;;;;;;;25.08;13.27;;;;;;;;;;4987893;28;20030;-66
2021/11/25 09:53:23;;;;;;;26.67;12.15;;;;;;;;;;4990966;28;20022;-66
2021/11/25 09:55:50;;;;;;;34.75;16.83;;;;;;;;;;4999772;28;20033;-66
2021/11/25 09:58:16;;;;;;;29.10;16.30;;;;;;;;;;5005106;28;20025;-66
2021/11/25 10:00:43;;;;;;;32.35;16.42;;;;;;;;;;4992211;28;20109;-66
2021/11/25 10:03:11;;;;;;;32.60;13.10;;;;;;;;;;5002244;28;20045;-66
2021/11/25 10:05:37;;;;;;;36.10;17.95;;;;;;;;;;4993453;28;20112;-66
2021/11/25 10:08:21;;;;;;;32.97;17.67;;;;;;;;;;4993660;28;20112;-66
2021/11/25 10:10:55;;;;;;;37.72;18.80;;;;;;;;;;4990278;28;20048;-66
2021/11/25 10:13:24;;;;;;;32.60;18.00;;;;;;;;;;4982687;28;20033;-66
2021/11/25 10:15:50;;;;;;;37.63;20.10;;;;;;;;;;5006440;28;20022;-67
2021/11/25 10:18:17;;;;;;;36.80;19.35;;;;;;;;;;5013331;28;20024;-66
2021/11/25 10:20:46;;;;;;;39.08;20.65;;;;;;;;;;5000129;28;20069;-66
2021/11/25 10:23:37;;;;;;;46.30;24.27;;;;;;;;;;5017644;22;20517;-72
2021/11/25 10:26:07;;;;;;;48.47;26.70;;;;;;;;;;5001290;28;20068;-72
2021/11/25 10:28:43;;;;;;;43.75;25.05;;;;;;;;;;4996958;28;20080;-71
2021/11/25 10:31:11;;;;;;;50.13;26.38;;;;;;;;;;4989079;28;20097;-70
2021/11/25 10:33:51;;;;;;;47.53;24.33;;;;;;;;;;4989035;28;20117;-71
2021/11/25 10:36:54;;;;;;;49.27;23.60;;;;;;;;;;5004096;28;20028;-71
2021/11/25 10:39:27;;;;;;;57.13;24.08;;;;;;;;;;4991005;28;20121;-71
2021/11/25 10:41:54;;;;;;;47.88;23.83;;;;;;;;;;4983536;28;20396;-71
2021/11/25 10:44:19;;;;;;;46.55;23.30;;;;;;;;;;4982692;28;20019;-71
2021/11/25 10:46:52;;;;;;;54.15;25.48;;;;;;;;;;4991608;28;20030;-71
2021/11/25 10:49:19;;;;;;;49.00;25.90;;;;;;;;;;4987999;28;20030;-71
2021/11/25 10:51:45;;;;;;;44.05;22.85;;;;;;;;;;4979008;28;20031;-71
2021/11/25 10:54:11;;;;;;;52.28;29.00;;;;;;;;;;4979116;28;20030;-71
2021/11/25 10:56:55;;;;;;;46.55;24.73;;;;;;;;;;4979352;28;20077;-71
2021/11/25 10:59:21;;;;;;;52.67;26.80;;;;;;;;;;4989825;28;20076;-71
2021/11/25 11:01:48;;;;;;;59.75;29.92;;;;;;;;;;4984749;28;20459;-71
2021/11/25 11:04:14;;;;;;;49.47;25.38;;;;;;;;;;4989214;28;20030;-71
2021/11/25 11:06:40;;;;;;;53.33;28.05;;;;;;;;;;4989779;28;20030;-71
2021/11/25 11:09:07;;;;;;;51.40;25.80;;;;;;;;;;4992154;28;20130;-71
2021/11/25 11:11:35;;;;;;;56.13;27.70;;;;;;;;;;4988254;28;20022;-71
2021/11/25 11:14:15;;;;;;;54.28;27.80;;;;;;;;;;4989240;28;20479;-71
2021/11/25 11:17:03;;;;;;;58.03;27.50;;;;;;;;;;4985693;28;20044;-71
2021/11/25 11:19:29;;;;;;;56.42;25.48;;;;;;;;;;4992449;28;20065;-71
2021/11/25 11:21:55;;;;;;;49.70;25.15;;;;;;;;;;4989791;28;20046;-71
2021/11/25 11:24:25;;;;;;;42.78;24.30;;;;;;;;;;4988753;28;20022;-71
2021/11/25 11:26:50;;;;;;;47.17;23.60;;;;;;;;;;4990914;28;20085;-70
2021/11/25 11:29:17;;;;;;;44.03;23.25;;;;;;;;;;4986204;28;20018;-70
2021/11/25 11:31:44;;;;;;;49.35;19.13;;;;;;;;;;5001286;28;20261;-71
2021/11/25 11:34:09;;;;;;;47.20;23.15;;;;;;;;;;4995279;28;20026;-70
2021/11/25 11:36:39;;;;;;;50.22;23.63;;;;;;;;;;4988040;28;20483;-70
2021/11/25 11:39:05;;;;;;;45.10;22.52;;;;;;;;;;4986534;28;20483;-70
2021/11/25 11:41:31;;;;;;;50.63;22.80;;;;;;;;;;4987411;28;20057;-70
2021/11/25 11:43:57;;;;;;;45.35;23.92;;;;;;;;;;4981455;28;20019;-70
2021/11/25 11:46:23;;;;;;;45.25;24.33;;;;;;;;;;4981149;28;20522;-70
2021/11/25 11:48:50;;;;;;;53.63;24.65;;;;;;;;;;4986345;28;20420;-70
2021/11/25 11:51:16;;;;;;;47.05;23.33;;;;;;;;;;4980942;28;20247;-70
2021/11/25 11:53:43;;;;;;;46.85;24.05;;;;;;;;;;4973274;28;20487;-70
2021/11/25 11:56:08;;;;;;;53.55;25.27;;;;;;;;;;4978784;28;20130;-70
2021/11/25 11:58:36;;;;;;;49.83;23.83;;;;;;;;;;4982686;28;20035;-70
2021/11/25 12:01:05;;;;;;;53.03;24.27;;;;;;;;;;4972391;28;20018;-70
2021/11/25 12:03:32;;;;;;;50.70;24.90;;;;;;;;;;4978075;28;20417;-70
2021/11/25 12:05:58;;;;;;;43.70;23.20;;;;;;;;;;4975747;28;20030;-70
2021/11/25 12:08:28;;;;;;;63.92;23.90;;;;;;;;;;4977872;28;20022;-71
2021/11/25 12:10:53;;;;;;;;;;;;;;;;;;4986812;28;20014;-71
2021/11/25 12:13:18;;;;;;;46.83;20.50;;;;;;;;;;4981005;28;19925;-70
2021/11/25 12:15:44;;;;;;;40.03;18.13;;;;;;;;;;4972122;28;20022;-70
2021/11/25 12:18:28;;;;;;;43.55;21.25;;;;;;;;;;4984165;28;20054;-70
2021/11/25 12:20:57;;;;;;;44.83;23.00;;;;;;;;;;4980413;28;20030;-70
2021/11/25 12:23:32;;;;;;;48.65;21.65;;;;;;;;;;4976694;28;20503;-70
2021/11/25 12:25:57;;;;;;;41.78;20.80;;;;;;;;;;4979575;28;20029;-70
2021/11/25 12:28:28;;;;;;;38.47;18.75;;;;;;;;;;4983940;28;20030;-71
2021/11/25 12:33:58;;;;;;;44.35;21.02;;;;;;;;;;4948670;29;20054;-71
2021/11/25 12:36:43;;;;;;;21.83;11.00;;;;;;;;;;4949672;29;20500;-71
2021/11/25 12:39:27;;;;;;;51.58;25.05;;;;;;;;;;4963685;28;20046;-70
2021/11/25 12:41:52;;;;;;;42.33;19.33;;;;;;;;;;4979098;28;20386;-70
2021/11/25 12:44:17;;;;;;;21.83;10.68;;;;;;;;;;4988346;28;20025;-70
2021/11/25 12:46:42;;;;;;;41.17;17.75;;;;;;;;;;4985532;28;20034;-71
2021/11/25 12:49:13;;;;;;;39.80;20.55;;;;;;;;;;4990485;28;20041;-71
2021/11/25 12:51:39;;;;;;;;;;;;;;;;;;4985558;28;20396;-71
2021/11/25 12:54:05;;;;;;;42.90;21.63;;;;;;;;;;4973736;28;20005;-71
2021/11/25 12:56:34;;;;;;;29.38;13.35;;;;;;;;;;4989257;28;20486;-71
2021/11/25 12:58:59;;;;;;;30.73;13.15;;;;;;;;;;4980103;28;20031;-71
2021/11/25 13:01:25;;;;;;;42.97;19.00;;;;;;;;;;4972711;28;20022;-71
2021/11/25 13:03:58;;;;;;;41.30;20.15;;;;;;;;;;4985962;28;20037;-72
2021/11/25 13:06:24;;;;;;;35.25;18.38;;;;;;;;;;4989141;28;20041;-71
2021/11/25 13:08:49;;;;;;;45.08;20.27;;;;;;;;;;4990995;28;20485;-72
2021/11/25 13:11:19;;;;;;;44.83;20.60;;;;;;;;;;4988976;28;20022;-72
2021/11/25 13:13:46;;;;;;;47.22;21.52;;;;;;;;;;4984930;28;20054;-71
2021/11/25 13:16:12;;;;;;;52.00;21.92;;;;;;;;;;4985540;28;20058;-71
2021/11/25 13:18:40;;;;;;;43.75;21.75;;;;;;;;;;4986987;28;20105;-72
2021/11/25 13:21:12;;;;;;;40.95;20.95;;;;;;;;;;4981428;28;20094;-71
2021/11/25 13:23:37;;;;;;;39.38;19.67;;;;;;;;;;4973507;28;20031;-71
2021/11/25 13:26:02;;;;;;;42.22;19.80;;;;;;;;;;4988180;28;20121;-72
2021/11/25 13:28:33;;;;;;;38.40;17.63;;;;;;;;;;4973117;28;20023;-71
2021/11/25 13:31:07;;;;;;;39.20;19.50;;;;;;;;;;4982336;28;20034;-71
2021/11/25 13:33:34;;;;;;;43.63;19.95;;;;;;;;;;4989177;28;20030;-70
2021/11/25 13:36:03;;;;;;;42.30;18.70;;;;;;;;;;4988577;28;20030;-71
2021/11/25 13:38:28;;;;;;;39.55;17.23;;;;;;;;;;4990246;28;20027;-71
2021/11/25 13:40:54;;;;;;;40.00;19.92;;;;;;;;;;4994319;28;20089;-71
2021/11/25 13:43:20;;;;;;;39.65;19.20;;;;;;;;;;4991589;28;20097;-71
2021/11/25 13:45:50;;;;;;;41.90;19.65;;;;;;;;;;4993117;28;20033;-71
2021/11/25 13:48:19;;;;;;;48.67;21.15;;;;;;;;;;4992339;28;20045;-72
2021/11/25 13:50:44;;;;;;;48.17;21.65;;;;;;;;;;4991052;28;20033;-72
2021/11/25 13:53:11;;;;;;;45.83;21.80;;;;;;;;;;4984573;28;20035;-71
2021/11/25 13:55:38;;;;;;;44.53;20.92;;;;;;;;;;4975706;28;20425;-71
2021/11/25 13:58:04;;;;;;;45.97;21.50;;;;;;;;;;4982232;28;20018;-71
2021/11/25 14:00:36;;;;;;;45.03;22.42;;;;;;;;;;4984888;28;20027;-71
2021/11/25 14:03:09;;;;;;;39.58;20.55;;;;;;;;;;4979774;28;20022;-71
2021/11/25 14:05:44;;;;;;;47.45;22.55;;;;;;;;;;4984065;28;20023;-71
2021/11/25 14:08:09;;;;;;;42.47;21.48;;;;;;;;;;4991413;28;20534;-71
2021/11/25 14:10:34;;;;;;;41.92;22.38;;;;;;;;;;4981316;28;20043;-71
2021/11/25 14:13:02;;;;;;;46.78;24.20;;;;;;;;;;4991722;28;20505;-71
2021/11/25 14:15:31;;;;;;;49.47;21.25;;;;;;;;;;4980993;28;20345;-71
2021/11/25 14:18:00;;;;;;;46.85;23.00;;;;;;;;;;4981183;28;20367;-71
2021/11/25 14:20:29;;;;;;;43.25;22.77;;;;;;;;;;4988618;28;20657;-71
2021/11/25 14:22:56;;;;;;;47.35;23.58;;;;;;;;;;4992700;28;20026;-71
2021/11/25 14:25:26;;;;;;;46.65;24.20;;;;;;;;;;4990515;28;20447;-71
2021/11/25 14:30:35;;;;;;;52.38;24.85;;;;;;;;;;4981026;28;20097;-71